createdAt,value
2022-12-17T00:00:04.123Z,4.35
2022-12-17T00:03:17.309Z,4.78
2022-12-17T00:06:25.090Z,4.28
2022-12-17T00:09:32.892Z,5.38
2022-12-17T00:12:40.566Z,4.75
2022-12-17T00:15:48.142Z,4.80
2022-12-17T00:18:56.452Z,5.30
2022-12-17T00:22:03.898Z,4.68
2022-12-17T00:25:11.446Z,5.18
2022-12-17T00:28:19.290Z,5.45
2022-12-17T00:31:27.091Z,5.22
2022-12-17T00:34:34.951Z,5.50
2022-12-17T00:37:42.704Z,5.20
2022-12-17T00:40:50.165Z,4.95
2022-12-17T00:43:58.159Z,5.18
2022-12-17T00:47:05.758Z,4.85
2022-12-17T00:50:13.171Z,5.03
2022-12-17T00:53:21.776Z,5.10
2022-12-17T00:56:29.386Z,4.78
2022-12-17T00:59:36.920Z,4.82
2022-12-17T01:02:45.128Z,5.00
2022-12-17T01:05:54.226Z,4.70
2022-12-17T01:09:02.104Z,4.88
2022-12-17T01:12:09.595Z,4.40
2022-12-17T01:15:16.896Z,4.88
2022-12-17T01:18:24.274Z,4.78
2022-12-17T01:21:36.550Z,4.60
2022-12-17T01:24:44.282Z,4.80
2022-12-17T01:27:52.021Z,4.68
2022-12-17T01:31:00.328Z,4.55
2022-12-17T01:34:07.715Z,4.70
2022-12-17T01:37:15.720Z,4.50
2022-12-17T01:40:23.534Z,4.68
2022-12-17T01:43:50.533Z,4.97
2022-12-17T01:47:04.616Z,4.78
2022-12-17T01:50:13.095Z,4.88
2022-12-17T01:53:23.936Z,5.13
2022-12-17T01:56:32.592Z,4.72
2022-12-17T01:59:54.075Z,4.85
2022-12-17T02:03:02.351Z,4.88
2022-12-17T02:06:23.641Z,4.97
2022-12-17T02:09:44.783Z,4.82
2022-12-17T02:13:04.259Z,4.75
2022-12-17T02:16:20.114Z,4.88
2022-12-17T02:19:54.157Z,4.95
2022-12-17T02:26:40.602Z,4.43
2022-12-17T02:29:55.442Z,4.85
2022-12-17T02:33:06.661Z,4.47
2022-12-17T02:36:22.823Z,5.20
2022-12-17T02:39:30.843Z,4.85
2022-12-17T02:42:40.020Z,4.82
2022-12-17T02:45:50.520Z,4.53
2022-12-17T02:48:58.336Z,5.05
2022-12-17T02:52:10.297Z,5.05
2022-12-17T02:55:17.747Z,5.05
2022-12-17T02:58:25.302Z,4.85
2022-12-17T03:01:33.439Z,4.68
2022-12-17T03:04:43.200Z,5.45
2022-12-17T03:07:50.714Z,5.10
2022-12-17T03:10:58.570Z,5.10
2022-12-17T03:14:06.414Z,4.78
2022-12-17T03:17:14.251Z,4.88
2022-12-17T03:20:22.506Z,5.15
2022-12-17T03:23:31.512Z,5.15
2022-12-17T03:26:39.351Z,5.43
2022-12-17T03:29:47.212Z,5.20
2022-12-17T03:32:55.065Z,5.07
2022-12-17T03:36:02.793Z,4.82
2022-12-17T03:39:15.137Z,4.90
2022-12-17T03:42:22.798Z,5.13
2022-12-17T03:45:30.747Z,4.97
2022-12-17T03:48:39.189Z,5.07
2022-12-17T03:51:46.782Z,4.85
2022-12-17T03:54:54.113Z,5.05
2022-12-17T03:58:01.560Z,5.45
2022-12-17T04:01:12.489Z,5.03
2022-12-17T04:04:20.219Z,5.07
2022-12-17T04:07:27.415Z,5.20
2022-12-17T04:10:35.000Z,5.35
2022-12-17T04:13:42.817Z,5.53
2022-12-17T04:16:51.826Z,5.30
2022-12-17T04:19:59.739Z,4.80
2022-12-17T04:23:07.802Z,5.28
2022-12-17T04:26:15.640Z,5.45
2022-12-17T04:29:23.644Z,5.30
2022-12-17T04:32:35.176Z,5.47
2022-12-17T04:35:43.350Z,5.00
2022-12-17T04:38:50.884Z,5.22
2022-12-17T04:41:58.042Z,5.68
2022-12-17T04:45:05.783Z,5.18
2022-12-17T04:48:25.748Z,5.28
2022-12-17T04:51:33.276Z,4.97
2022-12-17T04:54:41.265Z,5.85
2022-12-17T04:57:50.028Z,5.80
2022-12-17T05:00:57.748Z,5.15
2022-12-17T05:04:05.476Z,5.60
2022-12-17T05:07:33.195Z,5.63
2022-12-17T05:10:40.976Z,6.05
2022-12-17T05:13:48.270Z,5.55
2022-12-17T05:16:55.634Z,5.72
2022-12-17T05:20:03.219Z,5.38
2022-12-17T05:23:10.744Z,5.80
2022-12-17T05:26:37.318Z,5.75
2022-12-17T05:29:44.858Z,5.90
2022-12-17T05:32:52.363Z,5.68
2022-12-17T05:35:59.949Z,5.40
2022-12-17T05:39:08.205Z,5.80
2022-12-17T05:42:15.798Z,5.82
2022-12-17T05:45:23.585Z,6.28
2022-12-17T05:48:31.355Z,6.53
2022-12-17T05:51:39.816Z,6.00
2022-12-17T05:54:47.500Z,6.18
2022-12-17T05:57:56.777Z,6.25
2022-12-17T06:01:04.834Z,6.10
2022-12-17T06:04:23.140Z,5.93
2022-12-17T06:07:30.920Z,6.40
2022-12-17T06:10:39.025Z,6.32
2022-12-17T06:13:46.654Z,6.10
2022-12-17T06:16:54.412Z,7.00
2022-12-17T06:20:02.014Z,6.97
2022-12-17T06:23:19.272Z,6.50
2022-12-17T06:26:26.880Z,6.20
2022-12-17T06:29:34.335Z,6.82
2022-12-17T06:32:41.900Z,6.93
2022-12-17T06:35:52.263Z,7.03
2022-12-17T06:39:02.985Z,7.57
2022-12-17T06:42:10.588Z,7.25
2022-12-17T06:45:18.472Z,6.93
2022-12-17T06:48:28.097Z,7.47
2022-12-17T06:51:35.531Z,6.88
2022-12-17T06:54:43.055Z,7.38
2022-12-17T06:57:50.755Z,6.80
2022-12-17T07:00:58.579Z,7.20
2022-12-17T07:04:06.367Z,7.50
2022-12-17T07:07:14.314Z,7.22
2022-12-17T07:10:22.698Z,8.05
2022-12-17T07:13:31.450Z,7.70
2022-12-17T07:16:39.506Z,7.43
2022-12-17T07:19:47.517Z,7.90
2022-12-17T07:22:55.056Z,7.53
2022-12-17T07:26:03.574Z,7.63
2022-12-17T07:29:10.829Z,7.88
2022-12-17T07:32:18.246Z,8.38
2022-12-17T07:35:26.702Z,8.88
2022-12-17T07:38:34.305Z,7.63
2022-12-17T07:41:41.998Z,8.32
2022-12-17T07:44:49.456Z,7.97
2022-12-17T07:47:57.013Z,7.93
2022-12-17T07:51:10.816Z,8.35
2022-12-17T07:54:18.449Z,7.90
2022-12-17T07:57:26.324Z,8.02
2022-12-17T08:00:34.228Z,7.57
2022-12-17T08:03:42.367Z,7.93
2022-12-17T08:06:50.339Z,7.45
2022-12-17T08:09:58.083Z,8.18
2022-12-17T08:13:21.585Z,7.93
2022-12-17T08:16:32.841Z,7.70
2022-12-17T08:19:42.587Z,8.18
2022-12-17T08:22:53.165Z,7.93
2022-12-17T08:26:04.889Z,8.15
2022-12-17T08:29:16.027Z,8.38
2022-12-17T08:32:26.713Z,8.80
2022-12-17T08:35:36.597Z,9.13
2022-12-17T08:38:47.606Z,8.98
2022-12-17T08:42:03.953Z,8.55
2022-12-17T08:45:12.476Z,9.75
2022-12-17T08:48:27.239Z,9.43
2022-12-17T08:51:34.933Z,10.25
2022-12-17T08:54:42.631Z,9.85
2022-12-17T08:57:50.320Z,10.32
2022-12-17T09:00:58.137Z,9.70
2022-12-17T09:04:06.655Z,10.57
2022-12-17T09:07:14.224Z,10.77
2022-12-17T09:10:22.177Z,10.50
2022-12-17T09:13:29.968Z,10.50
2022-12-17T09:16:37.844Z,10.80
2022-12-17T09:19:45.308Z,10.30
2022-12-17T09:22:52.631Z,11.48
2022-12-17T09:26:02.136Z,11.07
2022-12-17T09:29:12.553Z,10.73
2022-12-17T09:32:20.255Z,11.68
2022-12-17T09:35:28.364Z,10.15
2022-12-17T09:38:36.501Z,11.63
2022-12-17T09:41:59.261Z,11.45
2022-12-17T09:45:28.188Z,11.32
2022-12-17T09:48:35.623Z,11.38
2022-12-17T09:51:48.763Z,11.93
2022-12-17T09:55:04.346Z,11.13
2022-12-17T09:58:11.858Z,11.65
2022-12-17T10:01:19.630Z,10.85
2022-12-17T10:04:35.689Z,10.88
2022-12-17T10:07:46.436Z,11.18
2022-12-17T10:10:55.832Z,10.70
2022-12-17T10:14:03.277Z,11.50
2022-12-17T10:17:12.263Z,11.32
2022-12-17T10:20:20.460Z,11.43
2022-12-17T10:23:28.172Z,11.23
2022-12-17T10:26:45.866Z,11.10
2022-12-17T10:29:54.044Z,10.82
2022-12-17T10:33:02.013Z,11.00
2022-12-17T10:36:10.246Z,10.50
2022-12-17T10:39:17.693Z,10.43
2022-12-17T10:42:40.727Z,11.43
2022-12-17T10:45:55.152Z,10.18
2022-12-17T10:49:06.893Z,10.70
2022-12-17T10:52:22.914Z,10.60
2022-12-17T10:55:46.918Z,10.80
2022-12-17T10:58:54.582Z,9.77
2022-12-17T11:02:02.630Z,9.88
2022-12-17T11:05:13.899Z,10.98
2022-12-17T11:08:22.732Z,10.43
2022-12-17T11:11:32.343Z,9.82
2022-12-17T11:14:40.074Z,9.70
2022-12-17T11:17:47.543Z,10.00
2022-12-17T11:21:06.774Z,10.10
2022-12-17T11:24:20.625Z,10.18
2022-12-17T11:27:37.986Z,10.70
2022-12-17T11:30:46.986Z,10.23
2022-12-17T11:34:01.937Z,9.57
2022-12-17T11:37:32.685Z,10.20
2022-12-17T11:41:11.558Z,9.93
2022-12-17T11:44:32.251Z,10.45
2022-12-17T11:48:01.466Z,10.88
2022-12-17T11:51:18.815Z,9.77
2022-12-17T11:54:39.845Z,9.30
2022-12-17T11:58:16.371Z,9.82
2022-12-17T12:01:36.167Z,9.82
2022-12-17T12:05:18.237Z,10.45
2022-12-17T12:08:50.832Z,9.35
2022-12-17T12:12:27.339Z,9.82
2022-12-17T12:16:13.636Z,9.68
2022-12-17T12:19:26.803Z,9.77
2022-12-17T12:22:53.948Z,10.33
2022-12-17T12:26:35.151Z,10.05
2022-12-17T12:29:56.669Z,9.23
2022-12-17T12:33:19.012Z,9.77
2022-12-17T12:36:29.929Z,9.23
2022-12-17T12:39:44.117Z,9.88
2022-12-17T12:42:59.193Z,9.43
2022-12-17T12:46:12.202Z,9.98
2022-12-17T12:50:01.143Z,10.38
2022-12-17T12:53:11.152Z,9.35
2022-12-17T12:56:18.885Z,8.75
2022-12-17T12:59:45.814Z,8.98
2022-12-17T13:02:53.583Z,9.70
2022-12-17T13:05:45.944Z,8.88
2022-12-17T13:08:35.573Z,8.93
2022-12-17T13:11:37.446Z,9.25
2022-12-17T13:15:11.864Z,9.43
2022-12-17T13:18:25.285Z,8.77
2022-12-17T13:21:17.174Z,8.85
2022-12-17T13:24:14.336Z,9.48
2022-12-17T13:27:04.054Z,9.35
2022-12-17T13:29:53.278Z,10.18
2022-12-17T13:33:08.263Z,8.45
2022-12-17T13:36:12.332Z,9.25
2022-12-17T13:39:09.989Z,8.45
2022-12-17T13:41:59.228Z,8.95
2022-12-17T13:44:48.860Z,9.13
2022-12-17T13:47:39.338Z,8.95
2022-12-17T13:50:34.246Z,8.52
2022-12-17T13:53:24.219Z,9.02
2022-12-17T13:56:22.912Z,8.75
2022-12-17T13:59:24.909Z,8.10
2022-12-17T14:02:37.330Z,8.85
2022-12-17T14:05:30.502Z,8.52
2022-12-17T14:08:21.988Z,8.43
2022-12-17T14:11:31.421Z,8.45
2022-12-17T14:14:42.496Z,8.25
2022-12-17T14:17:39.367Z,8.82
2022-12-17T14:20:33.175Z,8.77
2022-12-17T14:23:34.653Z,8.25
2022-12-17T14:26:24.237Z,8.25
2022-12-17T14:29:16.403Z,8.55
2022-12-17T14:32:34.110Z,8.60
2022-12-17T14:35:27.185Z,8.15
2022-12-17T14:38:37.054Z,7.70
2022-12-17T14:41:46.916Z,7.93
2022-12-17T14:44:36.432Z,8.32
2022-12-17T14:47:31.223Z,8.50
2022-12-17T14:50:21.636Z,8.48
2022-12-17T14:53:28.914Z,8.60
2022-12-17T14:56:24.617Z,8.27
2022-12-17T14:59:34.347Z,8.75
2022-12-17T15:02:29.165Z,8.90
2022-12-17T15:05:18.726Z,7.80
2022-12-17T15:08:08.214Z,8.63
2022-12-17T15:11:00.443Z,8.38
2022-12-17T15:13:54.647Z,7.93
2022-12-17T15:16:47.046Z,8.07
2022-12-17T15:19:36.211Z,8.23
2022-12-17T15:22:25.479Z,9.02
2022-12-17T15:25:16.629Z,8.02
2022-12-17T15:28:05.991Z,7.88
2022-12-17T15:30:55.374Z,9.25
2022-12-17T15:33:44.742Z,8.90
2022-12-17T15:36:34.515Z,7.97
2022-12-17T15:39:23.630Z,7.95
2022-12-17T15:42:31.284Z,7.70
2022-12-17T15:45:20.413Z,7.97
2022-12-17T15:48:10.517Z,7.38
2022-12-17T15:50:59.963Z,7.95
2022-12-17T15:53:49.729Z,8.18
2022-12-17T15:56:38.896Z,8.30
2022-12-17T15:59:28.066Z,7.97
2022-12-17T16:02:17.550Z,7.97
2022-12-17T16:05:07.464Z,8.32
2022-12-17T16:07:59.949Z,9.27
2022-12-17T16:10:49.127Z,8.02
2022-12-17T16:13:39.184Z,8.55
2022-12-17T16:16:30.712Z,7.35
2022-12-17T16:19:20.280Z,8.35
2022-12-17T16:22:09.440Z,8.25
2022-12-17T16:24:58.750Z,7.88
2022-12-17T16:27:47.969Z,8.10
2022-12-17T16:30:37.191Z,7.78
2022-12-17T16:33:28.759Z,8.10
2022-12-17T16:36:23.189Z,8.07
2022-12-17T16:39:18.178Z,7.95
2022-12-17T16:42:07.335Z,7.45
2022-12-17T16:44:56.567Z,8.30
2022-12-17T16:47:45.728Z,8.07
2022-12-17T16:50:35.052Z,8.45
2022-12-17T16:53:24.411Z,7.85
2022-12-17T16:56:18.880Z,8.05
2022-12-17T16:59:11.262Z,7.85
2022-12-17T17:02:01.275Z,7.63
2022-12-17T17:04:50.479Z,7.45
2022-12-17T17:07:39.672Z,8.45
2022-12-17T17:10:30.341Z,8.18
2022-12-17T17:13:19.498Z,8.20
2022-12-17T17:16:10.179Z,8.52
2022-12-17T17:18:59.620Z,8.23
2022-12-17T17:21:54.887Z,8.05
2022-12-17T17:24:44.073Z,7.75
2022-12-17T17:27:33.631Z,7.97
2022-12-17T17:30:25.154Z,7.25
2022-12-17T17:33:14.298Z,7.40
2022-12-17T17:36:08.124Z,7.70
2022-12-17T17:39:00.526Z,7.57
2022-12-17T17:41:49.764Z,7.65
2022-12-17T17:44:39.309Z,7.20
2022-12-17T17:47:31.089Z,7.15
2022-12-17T17:50:20.712Z,7.25
2022-12-17T17:53:11.438Z,6.82
2022-12-17T17:56:24.923Z,7.72
2022-12-17T17:59:21.484Z,7.78
2022-12-17T18:02:12.138Z,7.65
2022-12-17T18:05:01.661Z,7.15
2022-12-17T18:07:50.869Z,7.47
2022-12-17T18:10:40.128Z,7.03
2022-12-17T18:13:47.751Z,7.53
2022-12-17T18:16:48.466Z,7.80
2022-12-17T18:19:37.596Z,6.95
2022-12-17T18:22:26.785Z,7.03
2022-12-17T18:25:17.538Z,7.22
2022-12-17T18:28:06.805Z,6.57
2022-12-17T18:30:55.992Z,7.45
2022-12-17T18:33:48.933Z,6.72
2022-12-17T18:36:40.834Z,7.70
2022-12-17T18:39:30.014Z,6.72
2022-12-17T18:42:37.703Z,7.63
2022-12-17T18:45:27.460Z,6.57
2022-12-17T18:48:16.692Z,6.68
2022-12-17T18:51:07.057Z,6.50
2022-12-17T18:54:01.072Z,7.03
2022-12-17T18:57:00.886Z,6.85
2022-12-17T18:59:50.732Z,6.85
2022-12-17T19:02:40.137Z,7.10
2022-12-17T19:05:29.579Z,6.68
2022-12-17T19:08:18.983Z,6.13
2022-12-17T19:11:09.836Z,6.72
2022-12-17T19:13:59.083Z,8.00
2022-12-17T19:16:48.408Z,6.78
2022-12-17T19:19:37.600Z,7.40
2022-12-17T19:22:26.821Z,6.85
2022-12-17T19:25:16.012Z,6.60
2022-12-17T19:28:05.389Z,7.32
2022-12-17T19:30:58.359Z,6.57
2022-12-17T19:33:48.222Z,6.53
2022-12-17T19:36:39.792Z,6.82
2022-12-17T19:39:28.980Z,6.57
2022-12-17T19:42:34.959Z,6.50
2022-12-17T19:45:26.769Z,6.90
2022-12-17T19:48:17.972Z,6.85
2022-12-17T19:51:08.571Z,6.05
2022-12-17T19:54:00.751Z,6.50
2022-12-17T19:56:56.459Z,6.30
2022-12-17T19:59:45.695Z,6.43
2022-12-17T20:02:35.419Z,6.13
2022-12-17T20:05:26.260Z,7.15
2022-12-17T20:08:22.176Z,6.28
2022-12-17T20:11:32.543Z,6.35
2022-12-17T20:14:27.412Z,5.88
2022-12-17T20:17:16.590Z,6.20
2022-12-17T20:20:06.055Z,6.85
2022-12-17T20:22:55.194Z,6.47
2022-12-17T20:25:44.417Z,6.20
2022-12-17T20:28:34.602Z,6.15
2022-12-17T20:31:23.858Z,6.65
2022-12-17T20:34:15.576Z,6.30
2022-12-17T20:37:04.768Z,6.60
2022-12-17T20:39:53.973Z,6.70
2022-12-17T20:42:43.141Z,6.63
2022-12-17T20:45:32.900Z,6.75
2022-12-17T20:48:23.322Z,6.55
2022-12-17T20:51:17.141Z,6.18
2022-12-17T20:54:06.844Z,6.38
2022-12-17T20:56:56.004Z,6.75
2022-12-17T20:59:45.220Z,6.38
2022-12-17T21:02:40.662Z,6.53
2022-12-17T21:05:30.980Z,6.45
2022-12-17T21:08:20.205Z,5.70
2022-12-17T21:11:09.958Z,6.90
2022-12-17T21:13:59.970Z,6.25
2022-12-17T21:16:49.879Z,6.22
2022-12-17T21:19:39.200Z,6.70
2022-12-17T21:22:28.338Z,6.20
2022-12-17T21:25:17.632Z,6.30
2022-12-17T21:28:06.800Z,5.78
2022-12-17T21:30:59.589Z,7.07
2022-12-17T21:33:56.257Z,6.43
2022-12-17T21:36:47.371Z,6.07
2022-12-17T21:39:36.518Z,6.75
2022-12-17T21:42:44.172Z,6.60
2022-12-17T21:45:38.713Z,5.95
2022-12-17T21:48:28.160Z,6.57
2022-12-17T21:51:17.556Z,6.30
2022-12-17T21:54:08.550Z,5.82
2022-12-17T21:56:58.960Z,6.28
2022-12-17T21:59:49.908Z,5.90
2022-12-17T22:02:40.885Z,5.72
2022-12-17T22:05:30.360Z,6.28
2022-12-17T22:08:19.710Z,5.78
2022-12-17T22:11:18.098Z,6.57
2022-12-17T22:14:20.358Z,6.65
2022-12-17T22:17:10.144Z,6.65
2022-12-17T22:19:59.432Z,6.07
2022-12-17T22:22:48.775Z,6.65
2022-12-17T22:25:39.439Z,5.88
2022-12-17T22:28:28.588Z,5.88
2022-12-17T22:31:41.252Z,6.05
2022-12-17T22:36:14.419Z,5.70
2022-12-17T22:41:57.976Z,6.47
2022-12-17T22:44:34.071Z,5.65
2022-12-17T22:44:46.139Z,6.30
2022-12-17T22:47:14.800Z,6.10
2022-12-17T22:50:04.088Z,5.55
2022-12-17T22:52:53.970Z,5.95
2022-12-17T22:55:43.633Z,6.68
2022-12-17T22:58:33.288Z,6.35
2022-12-17T23:01:23.410Z,5.97
2022-12-17T23:04:15.172Z,6.18
2022-12-17T23:07:04.334Z,5.90
2022-12-17T23:10:02.967Z,5.85
2022-12-17T23:12:55.852Z,5.57
2022-12-17T23:15:45.151Z,6.10
2022-12-17T23:18:35.379Z,6.22
2022-12-17T23:21:27.015Z,6.13
2022-12-17T23:24:16.139Z,6.22
2022-12-17T23:27:05.721Z,5.85
2022-12-17T23:29:54.881Z,6.35
2022-12-17T23:32:45.091Z,5.93
2022-12-17T23:35:34.346Z,5.82
2022-12-17T23:38:23.561Z,5.95
2022-12-17T23:41:17.888Z,5.97
2022-12-17T23:44:16.433Z,5.68
2022-12-17T23:47:11.574Z,6.30
2022-12-17T23:50:02.058Z,5.72
2022-12-17T23:52:52.214Z,6.07
2022-12-17T23:55:41.405Z,6.28
2022-12-17T23:58:30.511Z,6.43
